Peachtree City, GA

5:29 AM EDT on July 31, 2016 (GMT -0400)
Peachtree City-Falcon | | Change Station

Elev 807 ft 33.36 °N, 84.57 °W | Updated 36 minutes ago

Clear
Clear
71 °F
Feels Like 71 °F
N
0
Wind Variable Wind from North

Today
High -- | Low -- °F
--% Chance of Precip.
Yesterday
High -- | Low -- °F
Precip. -- in
Pressure 30.03 in
Visibility 6.0 miles
Clouds Clear
Dew Point 70 °F
Humidity 96%
Rainfall 0.00 in
Snow Depth Not available.
6:50 AM 8:38 PM
Waning Crescent, 7% visible
METAR KFFC 310853Z AUTO 00000KT 6SM BR CLR 22/21 A3004 RMK AO2 SLP168 T02170211 55003
Pressure 30.03 in
Visibility 6.0 miles
Clouds Clear
Dew Point 70 °F
Humidity 96%
Rainfall 0.00 in
Snow Depth Not available.
6:50 AM 8:38 PM
Waning Crescent, 7% visible
METAR KFFC 310853Z AUTO 00000KT 6SM BR CLR 22/21 A3004 RMK AO2 SLP168 T02170211 55003

10-Day Weather Forecast

Almanac

Astronomy

Jul. 31, 2016 Rise Set
Actual Time
Civil Twilight
Nautical Twilight
Astronomical Twilight
Moon
Length of Visible Light
Length of Day
Tomorrow will be .
, % of the Moon is Illuminated

Today's Extremes

State Highs State Lows

Community

WunderPhotos

Upload Photos

1,928,776 photos uploaded!

WunderBlog® & News

Nearby

Air Quality

  Air Quality AQ Index Pollutant
Not available.

Snow Depth

Station Depth Elevation

Earthquake Activity

City Distance Mag. Time & Date
Minimum magnitude displayed is 2.5.

Coastal Water Temperatures

Place Temperature

Stations

Nearby Weather Stations

Station Location Temp. Windchill Dew Point Humidity Wind Precip. Elev Updated Type
                   

Watches & Warnings

There are currently no watches in effect.